Airfield :
LOGIN :

Register | Disclaimer

   EN    FR    IT 

 










Legend :    VFR   Marginal VFR   IFR   Intensive IFR   Very Intensive IFR
Visi :
Ceiling :
>= 8 km
>= 3000ft
5 to 8 km
1000 to 3000 ft
1500m to 5 km
500 to 1000 ft
800 to 1500m
200 to 500 ft
< 800m
< 200 ft
Symbols :   Thunderstorms  Fog  Heavy snow  Heavy precipitations  Wind > 20 kt
SIGMETs :     Misc.  Thunderstorms  Icing  Turbulence  Mountain Waves  Volcanic Ashes







- Airport Elevation : 1411 ft
- IATA code : SZG


LOWS - Salzburg

CURRENT METAR :
  • 240920Z 31013KT 9999 FEW038 BKN055 BKN100 18/11 Q1022 NOSIG

EXPIRED METARs :
  • 240850Z 30012KT 250V330 9999 FEW038 BKN055 18/10 Q1022 NOSIG
  • 240820Z 29013KT 240V320 9999 FEW030 SCT038 BKN050 18/10 Q1022 NOSIG
  • 240750Z 30013KT 9999 FEW030 SCT038 BKN050 18/11 Q1021 NOSIG
  • 240720Z 29011KT 9999 FEW028 SCT038 BKN050 18/11 Q1021 NOSIG
  • 240650Z 29013KT 260V320 9999 FEW028 SCT038 BKN050 17/11 Q1021 NOSIG

TAF TAF LOWS
Valid from the 24 at 06:00 until the 25 at 06:00 UTC


240515Z 2406/2506 29008KT 9999 FEW040 BKN060 TX21/2413Z TN13/2505Z
TEMPO 2406/2418 29015G25KT
TEMPO 2406/2409 SHRA FEW050TCU BKN060
TEMPO 2418/2506 SHRA FEW040TCU BKN050
No reported NOTAMs for that airfield.



MET'MAP, your aeronautical weather chart ! - Copyright ORBIFLY December 2007 - Disclaimer

ORBIFLY MET'MAP TEAM :

Programming & Development : Alexandra Zaïnal
Concept & Development : Baudouin d'Aumeries
Co-Development & Prog : Marc-Olivier Méhu
Technical & hardware support : Manuel Goepfert

Contact : metmap@orbifly.com




SOURCES & CREDITS :

   NOAA